Time;durP1;ratioP1;P1;durP2;ratioP2;P2;SDS_P1;SDS_P2;PMS_P1;PMS_P2;Temp;Humidity;BMP_temperature;BMP_pressure;BME280_temperature;BME280_humidity;BME280_pressure;Samples;Min_cycle;Max_cycle;Signal;HPM_P1;HPM_P2
2021/01/22 00:00:28;;;;;;;;;;;9.60;4.30;;;;;;5013019;28;19925;-65
2021/01/22 00:02:54;;;;;;;;;;;9.60;4.40;;;;;;5012760;28;19928;-65
2021/01/22 00:05:20;;;;;;;;;;;9.60;1.00;;;;;;5012931;28;19929;-65
2021/01/22 00:07:46;;;;;;;;;;;9.60;1.00;;;;;;5012937;28;19948;-65
2021/01/22 00:10:13;;;;;;;;;;;9.60;1.00;;;;;;5012717;28;19921;-65
2021/01/22 00:12:39;;;;;;;;;;;9.60;1.00;;;;;;5011780;28;20404;-65
2021/01/22 00:15:05;;;;;;;;;;;9.60;1.00;;;;;;5013042;28;19922;-65
2021/01/22 00:17:31;;;;;;;;;;;9.60;1.00;;;;;;5012975;28;19921;-65
2021/01/22 00:19:58;;;;;;;;;;;9.60;1.00;;;;;;5012662;28;19922;-65
2021/01/22 00:22:24;;;;;;;;;;;9.60;1.00;;;;;;5012179;28;19921;-65
2021/01/22 00:24:50;;;;;;;;;;;9.70;1.00;;;;;;5012981;28;19925;-65
2021/01/22 00:27:16;;;;;;;;;;;9.60;63.80;;;;;;5012889;28;20401;-65
2021/01/22 00:29:42;;;;;;;;;;;9.50;99.90;;;;;;5012712;28;19925;-66
2021/01/22 00:32:08;;;;;;;;;;;9.40;99.90;;;;;;5012043;28;19922;-65
2021/01/22 00:34:34;;;;;;;;;;;9.40;99.90;;;;;;5012529;28;19922;-65
2021/01/22 00:37:01;;;;;;;;;;;9.30;99.90;;;;;;5012263;28;19921;-65
2021/01/22 00:39:27;;;;;;;;;;;9.30;99.90;;;;;;5012690;28;19925;-65
2021/01/22 00:41:53;;;;;;;;;;;9.20;1.00;;;;;;5012324;28;20546;-66
2021/01/22 00:44:20;;;;;;;;;;;9.20;1.00;;;;;;5012636;28;19936;-65
2021/01/22 00:46:46;;;;;;;;;;;9.20;1.00;;;;;;5012411;28;19922;-65
2021/01/22 00:49:12;;;;;;;;;;;9.20;1.00;;;;;;5012374;28;19925;-65
2021/01/22 00:51:38;;;;;;;;;;;9.20;1.00;;;;;;5011631;28;19955;-65
2021/01/22 00:54:05;;;;;;;;;;;9.10;1.00;;;;;;5012393;28;19921;-65
2021/01/22 00:56:31;;;;;;;;;;;9.10;99.90;;;;;;5012464;28;19921;-65
2021/01/22 00:58:57;;;;;;;;;;;9.00;99.90;;;;;;5012308;28;19928;-66
2021/01/22 01:01:23;;;;;;;;;;;9.00;99.90;;;;;;5011781;28;20424;-66
2021/01/22 01:03:49;;;;;;;;;;;8.90;29.60;;;;;;5012277;28;19921;-65
2021/01/22 01:06:15;;;;;;;;;;;8.90;99.90;;;;;;5011989;28;19921;-65
2021/01/22 01:08:41;;;;;;;;;;;8.80;99.90;;;;;;5012541;28;19927;-65
2021/01/22 01:11:08;;;;;;;;;;;8.80;20.90;;;;;;5011780;28;20345;-66
2021/01/22 01:13:34;;;;;;;;;;;8.80;99.90;;;;;;5012416;28;19922;-65
2021/01/22 01:15:59;;;;;;;;;;;8.80;99.90;;;;;;5012349;28;19929;-64
2021/01/22 01:18:26;;;;;;;;;;;8.80;99.90;;;;;;5012007;28;20401;-66
2021/01/22 01:20:52;;;;;;;;;;;8.80;99.90;;;;;;5011581;28;19921;-65
2021/01/22 01:23:19;;;;;;;;;;;8.80;99.90;;;;;;5012991;28;19925;-65
2021/01/22 01:25:45;;;;;;;;;;;8.70;1.00;;;;;;5015828;28;19925;-66
2021/01/22 01:28:12;;;;;;;;;;;8.70;1.00;;;;;;5015948;28;19928;-65
2021/01/22 01:30:38;;;;;;;;;;;8.70;1.00;;;;;;5015547;28;19928;-65
2021/01/22 01:33:04;;;;;;;;;;;8.70;99.90;;;;;;5015288;28;19921;-65
2021/01/22 01:35:30;;;;;;;;;;;8.70;1.00;;;;;;5015447;28;19921;-65
2021/01/22 01:37:56;;;;;;;;;;;8.70;99.90;;;;;;5015742;28;19928;-65
2021/01/22 01:40:22;;;;;;;;;;;8.70;99.90;;;;;;5015373;28;19933;-65
2021/01/22 01:42:48;;;;;;;;;;;8.80;91.30;;;;;;5015244;28;19921;-65
2021/01/22 01:45:16;;;;;;;;;;;8.80;22.40;;;;;;5015846;28;19925;-65
2021/01/22 01:47:42;;;;;;;;;;;8.80;1.00;;;;;;5015656;28;19967;-65
2021/01/22 01:50:08;;;;;;;;;;;8.80;99.90;;;;;;5015509;28;19921;-65
2021/01/22 01:52:34;;;;;;;;;;;8.80;84.10;;;;;;5016372;28;19921;-65
2021/01/22 01:55:00;;;;;;;;;;;8.80;1.00;;;;;;5016727;28;19922;-65
2021/01/22 01:57:27;;;;;;;;;;;8.80;26.90;;;;;;5015732;28;19921;-65
2021/01/22 01:59:53;;;;;;;;;;;8.80;1.00;;;;;;5016566;28;19925;-63
2021/01/22 02:02:20;;;;;;;;;;;8.90;99.90;;;;;;5016159;28;20445;-65
2021/01/22 02:04:47;;;;;;;;;;;8.90;99.90;;;;;;5016399;28;20365;-65
2021/01/22 02:07:13;;;;;;;;;;;8.90;99.90;;;;;;5016777;28;19972;-65
2021/01/22 02:09:39;;;;;;;;;;;8.90;1.00;;;;;;5016404;28;19921;-65
2021/01/22 02:12:07;;;;;;;;;;;8.90;1.00;;;;;;5016385;28;19921;-65
2021/01/22 02:14:34;;;;;;;;;;;8.80;99.90;;;;;;5016213;28;19925;-65
2021/01/22 02:17:01;;;;;;;;;;;8.40;99.90;;;;;;5016164;28;19972;-65
2021/01/22 02:19:34;;;;;;;;;;;7.80;99.90;;;;;;5016007;28;19928;-63
2021/01/22 02:22:00;;;;;;;;;;;7.20;99.90;;;;;;5015073;28;19925;-63
2021/01/22 02:24:27;;;;;;;;;;;6.90;99.90;;;;;;5015531;28;19921;-64
2021/01/22 02:26:56;;;;;;;;;;;6.70;1.00;;;;;;5016421;28;19940;-65
2021/01/22 02:29:22;;;;;;;;;;;6.60;1.00;;;;;;5015586;28;19940;-64
2021/01/22 02:31:49;;;;;;;;;;;6.50;1.00;;;;;;5015661;28;19921;-64
2021/01/22 02:34:16;;;;;;;;;;;6.40;99.90;;;;;;5015075;28;19921;-64
2021/01/22 02:36:43;;;;;;;;;;;6.10;1.00;;;;;;5014269;28;19921;-65
2021/01/22 02:39:10;;;;;;;;;;;6.00;15.60;;;;;;5014307;28;19928;-64
2021/01/22 02:41:38;;;;;;;;;;;5.80;99.90;;;;;;5014133;28;19967;-64
2021/01/22 02:44:05;;;;;;;;;;;5.80;1.00;;;;;;5014369;28;19928;-64
2021/01/22 02:46:31;;;;;;;;;;;5.60;99.90;;;;;;5014154;28;19928;-65
2021/01/22 02:48:58;;;;;;;;;;;5.40;99.90;;;;;;5014356;28;19928;-65
2021/01/22 02:51:24;;;;;;;;;;;5.20;99.90;;;;;;5013482;28;19922;-65
2021/01/22 02:53:50;;;;;;;;;;;5.00;56.50;;;;;;5014146;28;20402;-66
2021/01/22 02:56:20;;;;;;;;;;;4.80;95.40;;;;;;5014032;28;19976;-65
2021/01/22 02:58:49;;;;;;;;;;;4.60;99.90;;;;;;5013843;28;19921;-64
2021/01/22 03:01:18;;;;;;;;;;;4.60;1.00;;;;;;5013661;28;19921;-65
2021/01/22 03:03:48;;;;;;;;;;;4.50;47.80;;;;;;5013670;28;19921;-65
2021/01/22 03:06:19;;;;;;;;;;;4.50;99.90;;;;;;5013991;28;19975;-65
2021/01/22 03:08:47;;;;;;;;;;;4.40;99.90;;;;;;5013709;28;19928;-65
2021/01/22 03:11:14;;;;;;;;;;;4.30;99.90;;;;;;5013157;28;19933;-65
2021/01/22 03:13:40;;;;;;;;;;;4.30;99.90;;;;;;5013664;28;19926;-65
2021/01/22 03:16:06;;;;;;;;;;;4.20;1.00;;;;;;5015340;28;19928;-65
2021/01/22 03:18:33;;;;;;;;;;;4.20;1.00;;;;;;5015242;28;20620;-66
2021/01/22 03:21:05;;;;;;;;;;;4.10;1.00;;;;;;5014879;28;19922;-65
2021/01/22 03:23:31;;;;;;;;;;;4.10;1.00;;;;;;5014894;28;19967;-67
2021/01/22 03:25:57;;;;;;;;;;;4.10;1.00;;;;;;5013257;28;20410;-66
2021/01/22 03:28:23;;;;;;;;;;;4.00;1.00;;;;;;5013584;28;19925;-65
2021/01/22 03:30:49;;;;;;;;;;;3.90;1.00;;;;;;5013093;28;19948;-66
2021/01/22 03:33:15;;;;;;;;;;;3.80;99.90;;;;;;5014237;28;19921;-66
2021/01/22 03:35:41;;;;;;;;;;;3.80;1.00;;;;;;5015652;28;19925;-65
2021/01/22 03:38:07;;;;;;;;;;;3.80;1.00;;;;;;5015582;28;19921;-65
2021/01/22 03:40:33;;;;;;;;;;;3.80;75.50;;;;;;5013814;28;19975;-66
2021/01/22 03:42:59;;;;;;;;;;;3.80;99.90;;;;;;5013287;28;19922;-65
2021/01/22 03:45:25;;;;;;;;;;;3.70;1.00;;;;;;5013139;28;19921;-65
2021/01/22 03:47:51;;;;;;;;;;;3.70;99.90;;;;;;5012459;28;20673;-66
2021/01/22 03:50:17;;;;;;;;;;;3.80;99.90;;;;;;5012812;28;19925;-65
2021/01/22 03:52:44;;;;;;;;;;;3.70;1.00;;;;;;5012715;28;19921;-66
2021/01/22 03:55:10;;;;;;;;;;;3.80;1.00;;;;;;5012804;28;20606;-64
2021/01/22 03:57:36;;;;;;;;;;;3.80;67.90;;;;;;5012856;28;20487;-64
2021/01/22 04:00:04;;;;;;;;;;;3.80;62.20;;;;;;5012749;28;19929;-64
2021/01/22 04:02:30;;;;;;;;;;;3.80;28.70;;;;;;5012789;28;19928;-65
2021/01/22 04:04:56;;;;;;;;;;;3.80;63.70;;;;;;5013006;28;19922;-64
2021/01/22 04:07:22;;;;;;;;;;;3.80;91.30;;;;;;5012592;28;20441;-65
2021/01/22 04:09:48;;;;;;;;;;;3.70;95.70;;;;;;5012644;28;19932;-65
2021/01/22 04:12:14;;;;;;;;;;;3.70;1.00;;;;;;5012490;28;19922;-65
2021/01/22 04:14:40;;;;;;;;;;;3.70;21.70;;;;;;5012870;28;19921;-65
2021/01/22 04:17:06;;;;;;;;;;;3.70;99.90;;;;;;5012710;28;19921;-65
2021/01/22 04:19:32;;;;;;;;;;;3.70;99.90;;;;;;5012511;28;20356;-65
2021/01/22 04:21:58;;;;;;;;;;;3.70;10.80;;;;;;5012184;28;19921;-65
2021/01/22 04:24:24;;;;;;;;;;;3.60;1.00;;;;;;5012504;28;19922;-65
2021/01/22 04:26:51;;;;;;;;;;;3.50;1.00;;;;;;5012550;28;20389;-65
2021/01/22 04:29:18;;;;;;;;;;;3.50;1.00;;;;;;5012668;28;19966;-65
2021/01/22 04:31:44;;;;;;;;;;;3.60;1.00;;;;;;5012424;28;19944;-64
2021/01/22 04:34:09;;;;;;;;;;;3.60;89.80;;;;;;5012526;28;19921;-64
2021/01/22 04:36:35;;;;;;;;;;;3.60;99.90;;;;;;5012375;28;19928;-65
2021/01/22 04:39:02;;;;;;;;;;;3.60;99.90;;;;;;5012735;28;20015;-64
2021/01/22 04:41:28;;;;;;;;;;;3.60;99.90;;;;;;5012140;28;19928;-64
2021/01/22 04:43:54;;;;;;;;;;;3.60;99.90;;;;;;5013194;28;19925;-64
2021/01/22 04:46:21;;;;;;;;;;;3.60;99.90;;;;;;5013499;28;19952;-64
2021/01/22 04:48:48;;;;;;;;;;;3.60;99.90;;;;;;5013165;28;19944;-64
2021/01/22 04:51:15;;;;;;;;;;;3.60;99.90;;;;;;5012754;28;19929;-64
2021/01/22 04:53:42;;;;;;;;;;;3.60;99.90;;;;;;5015039;28;19921;-64
2021/01/22 04:56:09;;;;;;;;;;;3.60;99.90;;;;;;5013840;28;19975;-64
2021/01/22 04:58:39;;;;;;;;;;;3.50;99.90;;;;;;5014805;28;20374;-64
2021/01/22 05:01:06;;;;;;;;;;;3.50;90.60;;;;;;5017377;28;19928;-64
2021/01/22 05:03:33;;;;;;;;;;;3.50;77.50;;;;;;5017447;28;19929;-64
2021/01/22 05:05:59;;;;;;;;;;;3.50;83.10;;;;;;5017563;28;19922;-64
2021/01/22 05:08:26;;;;;;;;;;;3.50;20.10;;;;;;5017434;28;19921;-64
2021/01/22 05:10:52;;;;;;;;;;;3.50;1.00;;;;;;5016968;28;19921;-64
2021/01/22 05:13:18;;;;;;;;;;;3.50;1.00;;;;;;5017294;28;19929;-64
2021/01/22 05:16:07;;;;;;;;;;;3.50;1.00;;;;;;5017341;28;19921;-64
2021/01/22 05:18:35;;;;;;;;;;;3.50;1.00;;;;;;5016360;28;19925;-64
2021/01/22 05:21:05;;;;;;;;;;;3.40;1.00;;;;;;5017385;28;19928;-64
2021/01/22 05:23:32;;;;;;;;;;;3.40;1.00;;;;;;5016420;28;19928;-64
2021/01/22 05:25:59;;;;;;;;;;;3.40;1.00;;;;;;5013761;28;19967;-64
2021/01/22 05:28:29;;;;;;;;;;;3.40;1.00;;;;;;5015733;28;19921;-64
2021/01/22 05:30:55;;;;;;;;;;;3.50;1.00;;;;;;5016320;28;19925;-65
2021/01/22 05:33:21;;;;;;;;;;;3.50;1.00;;;;;;5016666;28;19925;-64
2021/01/22 05:35:48;;;;;;;;;;;3.50;1.00;;;;;;5016255;28;19921;-64
2021/01/22 05:38:14;;;;;;;;;;;3.50;1.00;;;;;;5015407;28;19921;-64
2021/01/22 05:40:48;;;;;;;;;;;3.50;1.00;;;;;;5014467;28;19921;-64
2021/01/22 05:43:14;;;;;;;;;;;3.50;1.00;;;;;;5015017;28;19925;-64
2021/01/22 05:45:40;;;;;;;;;;;3.50;1.00;;;;;;5014971;28;20444;-64
2021/01/22 05:48:16;;;;;;;;;;;3.50;1.00;;;;;;5015329;28;19937;-64
2021/01/22 05:50:47;;;;;;;;;;;3.50;1.00;;;;;;5014779;28;20614;-64
2021/01/22 05:53:14;;;;;;;;;;;3.50;99.90;;;;;;5014907;28;19934;-64
2021/01/22 05:55:40;;;;;;;;;;;3.50;99.90;;;;;;5015052;28;19921;-63
2021/01/22 05:58:06;;;;;;;;;;;3.50;99.90;;;;;;5015103;28;19933;-63
2021/01/22 06:00:33;;;;;;;;;;;3.50;99.90;;;;;;5015267;28;20291;-63
2021/01/22 06:02:59;;;;;;;;;;;3.50;99.90;;;;;;5014481;28;19983;-63
2021/01/22 06:05:26;;;;;;;;;;;3.50;1.00;;;;;;5014897;28;20406;-63
2021/01/22 06:08:04;;;;;;;;;;;3.50;99.90;;;;;;5014831;28;19960;-64
2021/01/22 06:10:32;;;;;;;;;;;3.60;1.00;;;;;;5013221;28;19925;-64
2021/01/22 06:13:01;;;;;;;;;;;3.60;1.00;;;;;;5014418;28;20274;-64
2021/01/22 06:15:28;;;;;;;;;;;3.60;1.00;;;;;;5014665;28;20402;-64
2021/01/22 06:17:55;;;;;;;;;;;3.70;1.00;;;;;;5014670;28;19944;-63
2021/01/22 06:20:22;;;;;;;;;;;3.70;99.90;;;;;;5014403;28;20016;-63
2021/01/22 06:23:00;;;;;;;;;;;3.70;99.90;;;;;;5014094;28;19922;-64
2021/01/22 06:25:27;;;;;;;;;;;3.70;99.90;;;;;;5014659;28;20004;-64
2021/01/22 06:27:54;;;;;;;;;;;3.70;99.90;;;;;;5014870;28;20316;-64
2021/01/22 06:30:22;;;;;;;;;;;3.70;99.90;;;;;;5013924;28;19975;-65
2021/01/22 06:32:48;;;;;;;;;;;3.70;1.00;;;;;;5009096;28;20341;-65
2021/01/22 06:35:16;;;;;;;;;;;3.70;99.90;;;;;;5014436;28;19965;-66
2021/01/22 06:37:42;;;;;;;;;;;3.70;1.00;;;;;;5014606;28;20275;-65
2021/01/22 06:40:08;;;;;;;;;;;3.80;99.90;;;;;;5014291;28;19964;-66
2021/01/22 06:42:37;;;;;;;;;;;3.80;99.90;;;;;;5010065;28;20032;-66
2021/01/22 06:45:06;;;;;;;;;;;3.80;99.90;;;;;;4994649;28;20053;-64
2021/01/22 06:47:32;;;;;;;;;;;3.80;99.90;;;;;;4994775;28;19921;-63
2021/01/22 06:49:58;;;;;;;;;;;3.90;99.90;;;;;;4994231;28;19921;-63
2021/01/22 06:52:24;;;;;;;;;;;3.90;99.90;;;;;;4993891;28;19944;-65
2021/01/22 06:55:03;;;;;;;;;;;3.90;99.90;;;;;;4994574;28;19926;-66
2021/01/22 06:57:30;;;;;;;;;;;3.90;99.90;;;;;;4994545;28;20383;-66
2021/01/22 06:59:57;;;;;;;;;;;4.00;99.90;;;;;;4994612;28;19955;-66
2021/01/22 07:02:38;;;;;;;;;;;4.00;76.80;;;;;;4993925;28;19972;-65
2021/01/22 07:05:19;;;;;;;;;;;4.00;93.10;;;;;;4994474;28;19922;-65
2021/01/22 07:07:45;;;;;;;;;;;4.00;99.90;;;;;;4993390;28;19929;-65
2021/01/22 07:10:12;;;;;;;;;;;4.00;99.90;;;;;;4994343;28;19922;-67
2021/01/22 07:12:38;;;;;;;;;;;4.00;99.90;;;;;;4993731;28;19953;-66
2021/01/22 07:15:19;;;;;;;;;;;4.10;63.20;;;;;;4993833;28;20025;-64
2021/01/22 07:17:48;;;;;;;;;;;4.10;1.00;;;;;;4993142;28;19976;-63
2021/01/22 07:20:14;;;;;;;;;;;4.10;1.00;;;;;;4994063;28;19922;-64
2021/01/22 07:22:49;;;;;;;;;;;4.10;1.00;;;;;;4992955;28;19929;-64
2021/01/22 07:25:28;;;;;;;;;;;4.10;1.00;;;;;;4994140;28;19944;-65
2021/01/22 07:27:54;;;;;;;;;;;4.20;1.00;;;;;;4993710;28;19921;-65
2021/01/22 07:30:20;;;;;;;;;;;4.20;99.90;;;;;;4993978;28;19922;-64
2021/01/22 07:32:48;;;;;;;;;;;4.20;1.00;;;;;;4993136;28;19968;-65
2021/01/22 07:35:20;;;;;;;;;;;4.30;1.00;;;;;;4993979;28;19976;-64
2021/01/22 07:37:46;;;;;;;;;;;4.20;1.00;;;;;;4993517;28;19921;-64
2021/01/22 07:40:13;;;;;;;;;;;4.20;99.90;;;;;;4993753;28;19921;-64
2021/01/22 07:42:40;;;;;;;;;;;4.30;99.90;;;;;;4993404;28;19973;-63
2021/01/22 07:45:10;;;;;;;;;;;4.20;99.90;;;;;;4993866;28;19921;-64
2021/01/22 07:47:37;;;;;;;;;;;4.30;99.90;;;;;;4993781;28;20382;-63
2021/01/22 07:50:05;;;;;;;;;;;4.30;99.90;;;;;;4995230;28;19926;-64
2021/01/22 07:52:34;;;;;;;;;;;4.30;99.90;;;;;;4992522;28;19922;-64
2021/01/22 07:55:00;;;;;;;;;;;4.30;99.90;;;;;;4993806;28;19952;-64
2021/01/22 07:57:27;;;;;;;;;;;4.30;99.90;;;;;;4993497;28;19944;-65
2021/01/22 07:59:53;;;;;;;;;;;4.30;99.90;;;;;;4993644;28;19922;-66
2021/01/22 08:02:20;;;;;;;;;;;4.30;99.90;;;;;;4992800;28;19984;-65
2021/01/22 08:04:47;;;;;;;;;;;4.40;99.90;;;;;;4993261;28;19921;-64
2021/01/22 08:07:13;;;;;;;;;;;4.40;45.10;;;;;;4993059;28;19937;-65
2021/01/22 08:09:51;;;;;;;;;;;4.40;61.50;;;;;;4993276;28;19925;-64
2021/01/22 08:12:17;;;;;;;;;;;4.40;48.30;;;;;;4993095;28;20020;-64
2021/01/22 08:14:43;;;;;;;;;;;4.50;1.00;;;;;;4993540;28;19929;-65
2021/01/22 08:17:12;;;;;;;;;;;4.50;1.00;;;;;;4993326;28;19980;-65
2021/01/22 08:19:38;;;;;;;;;;;4.50;1.00;;;;;;4993295;28;20503;-65
2021/01/22 08:22:04;;;;;;;;;;;4.50;1.00;;;;;;4992648;28;19969;-64
2021/01/22 08:24:30;;;;;;;;;;;4.50;42.10;;;;;;4993786;28;20294;-64
2021/01/22 08:26:58;;;;;;;;;;;4.50;1.00;;;;;;4992984;28;19921;-65
2021/01/22 08:29:25;;;;;;;;;;;4.50;1.00;;;;;;4993276;28;19961;-63
2021/01/22 08:31:52;;;;;;;;;;;4.50;1.00;;;;;;4993608;28;19922;-65
2021/01/22 08:34:18;;;;;;;;;;;4.50;31.40;;;;;;4998716;28;19925;-66
2021/01/22 08:36:44;;;;;;;;;;;4.60;52.40;;;;;;4999618;28;19922;-65
2021/01/22 08:39:10;;;;;;;;;;;4.60;90.50;;;;;;4999171;28;19928;-64
2021/01/22 08:41:36;;;;;;;;;;;4.70;89.90;;;;;;4999244;28;19925;-66
2021/01/22 08:44:03;;;;;;;;;;;4.70;1.00;;;;;;4999211;28;19926;-64
2021/01/22 08:46:29;;;;;;;;;;;4.70;1.00;;;;;;4999314;28;19926;-65
2021/01/22 08:48:55;;;;;;;;;;;4.70;1.00;;;;;;4999705;28;19929;-65
2021/01/22 08:51:28;;;;;;;;;;;4.80;1.00;;;;;;4998661;28;19928;-63
2021/01/22 08:53:55;;;;;;;;;;;4.80;1.00;;;;;;4999047;28;20430;-65
2021/01/22 08:56:22;;;;;;;;;;;4.80;99.90;;;;;;5003628;28;19926;-65
2021/01/22 08:59:01;;;;;;;;;;;4.90;1.00;;;;;;4999553;28;20318;-65
2021/01/22 09:01:47;;;;;;;;;;;4.80;99.90;;;;;;4999268;28;19929;-65
2021/01/22 09:04:18;;;;;;;;;;;4.90;99.90;;;;;;4998993;28;19925;-65
2021/01/22 09:06:47;;;;;;;;;;;4.90;99.90;;;;;;4999558;28;19921;-64
2021/01/22 09:09:13;;;;;;;;;;;4.90;99.90;;;;;;4999720;28;20024;-65
2021/01/22 09:11:39;;;;;;;;;;;5.00;99.90;;;;;;4998570;28;19921;-65
2021/01/22 09:14:05;;;;;;;;;;;5.00;99.90;;;;;;4999256;28;19930;-64
2021/01/22 09:16:31;;;;;;;;;;;4.90;99.90;;;;;;4999426;28;20345;-65
2021/01/22 09:19:01;;;;;;;;;;;4.90;99.90;;;;;;4999687;28;19921;-65
2021/01/22 09:21:27;;;;;;;;;;;5.00;99.90;;;;;;4998779;28;19973;-67
2021/01/22 09:23:53;;;;;;;;;;;5.00;1.00;;;;;;4998759;28;20135;-65
2021/01/22 09:26:19;;;;;;;;;;;5.00;8.30;;;;;;4998955;28;19922;-67
2021/01/22 09:28:46;;;;;;;;;;;5.00;7.00;;;;;;4999460;28;20303;-64
2021/01/22 09:31:12;;;;;;;;;;;5.10;1.00;;;;;;4999072;28;19928;-65
2021/01/22 09:33:38;;;;;;;;;;;5.10;99.90;;;;;;4998569;28;19922;-66
2021/01/22 09:36:05;;;;;;;;;;;5.10;1.00;;;;;;4999067;28;19992;-65
2021/01/22 09:38:31;;;;;;;;;;;5.10;1.00;;;;;;4999046;28;19925;-66
2021/01/22 09:40:57;;;;;;;;;;;5.20;1.00;;;;;;4998553;28;19929;-66
2021/01/22 09:43:23;;;;;;;;;;;5.30;1.00;;;;;;4998755;28;19957;-66
2021/01/22 09:45:49;;;;;;;;;;;5.30;99.90;;;;;;4996040;28;19934;-66
2021/01/22 09:48:17;;;;;;;;;;;5.30;82.40;;;;;;4996446;28;19953;-65
2021/01/22 09:50:43;;;;;;;;;;;5.40;99.90;;;;;;4995967;28;19980;-66
2021/01/22 09:53:10;;;;;;;;;;;5.40;1.00;;;;;;4995081;28;19925;-66
2021/01/22 09:55:36;;;;;;;;;;;5.40;1.00;;;;;;4995923;28;19929;-65
2021/01/22 09:58:02;;;;;;;;;;;5.40;1.00;;;;;;4996081;28;19930;-66
2021/01/22 10:00:28;;;;;;;;;;;5.50;99.90;;;;;;4996169;28;19921;-68
2021/01/22 10:02:54;;;;;;;;;;;5.50;99.90;;;;;;4995050;28;19926;-66
2021/01/22 10:05:20;;;;;;;;;;;5.50;99.90;;;;;;4995775;28;19929;-68
2021/01/22 10:07:46;;;;;;;;;;;5.50;99.90;;;;;;4995737;28;20346;-68
2021/01/22 10:10:13;;;;;;;;;;;5.50;99.90;;;;;;4995162;28;19929;-68
2021/01/22 10:12:39;;;;;;;;;;;5.50;99.90;;;;;;4995148;28;19922;-66
2021/01/22 10:15:06;;;;;;;;;;;5.50;99.90;;;;;;4996083;28;19922;-65
2021/01/22 10:17:33;;;;;;;;;;;5.50;77.60;;;;;;4995467;28;19922;-65
2021/01/22 10:19:59;;;;;;;;;;;5.50;20.70;;;;;;4995400;28;19925;-65
2021/01/22 10:22:25;;;;;;;;;;;5.50;1.00;;;;;;4993902;28;19928;-66
2021/01/22 10:24:51;;;;;;;;;;;5.50;99.90;;;;;;4995454;28;19932;-66
2021/01/22 10:27:18;;;;;;;;;;;5.50;99.90;;;;;;4995540;28;19921;-67
2021/01/22 10:29:44;;;;;;;;;;;5.50;1.00;;;;;;4995126;28;19925;-65
2021/01/22 10:32:10;;;;;;;;;;;5.60;1.00;;;;;;4994709;28;20334;-64
2021/01/22 10:34:36;;;;;;;;;;;5.60;1.00;;;;;;4994966;28;19925;-64
2021/01/22 10:37:02;;;;;;;;;;;5.60;1.00;;;;;;4995349;28;19980;-63
2021/01/22 10:39:28;;;;;;;;;;;5.60;1.00;;;;;;4995067;28;19925;-64
2021/01/22 10:41:54;;;;;;;;;;;5.70;1.00;;;;;;4994801;28;19992;-63
2021/01/22 10:44:20;;;;;;;;;;;5.70;1.00;;;;;;4996256;28;20345;-66
2021/01/22 10:46:46;;;;;;;;;;;5.70;1.00;;;;;;4994728;28;19921;-65
2021/01/22 10:49:12;;;;;;;;;;;5.70;99.90;;;;;;4995008;28;19926;-65
2021/01/22 10:51:39;;;;;;;;;;;5.80;99.90;;;;;;4993930;28;19921;-65
2021/01/22 10:54:05;;;;;;;;;;;5.80;99.90;;;;;;4994789;28;19921;-65
2021/01/22 10:56:31;;;;;;;;;;;5.80;99.90;;;;;;4994084;28;19953;-65
2021/01/22 10:58:57;;;;;;;;;;;5.90;99.90;;;;;;4994647;28;19945;-65
2021/01/22 11:01:24;;;;;;;;;;;5.90;99.90;;;;;;4994471;28;19951;-64
2021/01/22 11:03:50;;;;;;;;;;;5.90;1.00;;;;;;5005475;28;19921;-64
2021/01/22 11:06:16;;;;;;;;;;;5.90;85.00;;;;;;5014933;28;20028;-63
2021/01/22 11:08:42;;;;;;;;;;;5.90;1.00;;;;;;5016081;28;20015;-63
2021/01/22 11:11:09;;;;;;;;;;;5.90;2.10;;;;;;5014478;28;19929;-64
2021/01/22 11:13:35;;;;;;;;;;;6.00;1.00;;;;;;5022732;28;19928;-63
2021/01/22 11:16:01;;;;;;;;;;;6.10;1.00;;;;;;5014915;28;19922;-63
2021/01/22 11:18:27;;;;;;;;;;;6.10;1.00;;;;;;5014141;28;20362;-65
2021/01/22 11:20:54;;;;;;;;;;;6.20;1.00;;;;;;5013563;28;20393;-63
2021/01/22 11:23:20;;;;;;;;;;;6.10;99.90;;;;;;5013507;28;19921;-64
2021/01/22 11:25:46;;;;;;;;;;;6.10;99.90;;;;;;5014854;28;20308;-63
2021/01/22 11:28:12;;;;;;;;;;;6.20;99.90;;;;;;5013710;28;19921;-62
2021/01/22 11:30:38;;;;;;;;;;;6.20;99.90;;;;;;5013741;28;19921;-61
2021/01/22 11:33:04;;;;;;;;;;;6.20;99.90;;;;;;5012831;28;19930;-62
2021/01/22 11:35:34;;;;;;;;;;;6.20;99.90;;;;;;5013776;28;20373;-61
2021/01/22 11:38:00;;;;;;;;;;;6.20;99.90;;;;;;5016194;28;20331;-63
2021/01/22 11:40:26;;;;;;;;;;;6.20;99.90;;;;;;5014314;28;19952;-62
2021/01/22 11:42:52;;;;;;;;;;;6.10;99.90;;;;;;5017353;28;19921;-64
2021/01/22 11:45:18;;;;;;;;;;;6.10;99.90;;;;;;5022609;28;19952;-65
2021/01/22 11:47:44;;;;;;;;;;;6.00;99.90;;;;;;5013515;28;19971;-64
2021/01/22 11:50:10;;;;;;;;;;;6.00;99.90;;;;;;5013051;28;20309;-63
2021/01/22 11:52:37;;;;;;;;;;;6.00;99.90;;;;;;5012305;28;19922;-63
2021/01/22 11:55:04;;;;;;;;;;;6.00;99.90;;;;;;5013309;28;19925;-65
2021/01/22 11:57:30;;;;;;;;;;;5.90;99.90;;;;;;5012909;28;19925;-64
2021/01/22 11:59:56;;;;;;;;;;;5.90;99.90;;;;;;5013184;28;19929;-63
2021/01/22 12:02:22;;;;;;;;;;;6.00;99.90;;;;;;5012447;28;19921;-64
2021/01/22 12:04:49;;;;;;;;;;;6.10;99.90;;;;;;5013069;28;19925;-64
2021/01/22 12:07:15;;;;;;;;;;;6.20;99.90;;;;;;5012938;28;20009;-66
2021/01/22 12:09:42;;;;;;;;;;;6.40;99.90;;;;;;5012402;28;19952;-64
2021/01/22 12:12:08;;;;;;;;;;;6.50;99.90;;;;;;5012527;28;19975;-65
2021/01/22 12:14:34;;;;;;;;;;;6.60;99.90;;;;;;5013073;28;19957;-66
2021/01/22 12:17:00;;;;;;;;;;;6.80;99.90;;;;;;5013411;28;19929;-66
2021/01/22 12:19:26;;;;;;;;;;;6.70;1.00;;;;;;5014623;28;19921;-66
2021/01/22 12:21:52;;;;;;;;;;;6.50;1.00;;;;;;5013070;28;20386;-64
2021/01/22 12:24:18;;;;;;;;;;;6.50;40.60;;;;;;5012561;28;19928;-65
2021/01/22 12:26:46;;;;;;;;;;;6.60;28.30;;;;;;5012947;28;19922;-64
2021/01/22 12:29:12;;;;;;;;;;;6.70;44.00;;;;;;5013052;28;20020;-64
2021/01/22 12:31:38;;;;;;;;;;;6.80;1.00;;;;;;5012314;28;19975;-64
2021/01/22 12:34:04;;;;;;;;;;;6.90;1.00;;;;;;5012424;28;19921;-65
2021/01/22 12:36:30;;;;;;;;;;;6.70;1.00;;;;;;5012913;28;20370;-63
2021/01/22 12:38:56;;;;;;;;;;;6.70;1.00;;;;;;5012780;28;19921;-63
2021/01/22 12:41:22;;;;;;;;;;;6.70;1.00;;;;;;5012383;28;19921;-63
2021/01/22 12:43:49;;;;;;;;;;;6.80;1.00;;;;;;5012173;28;19995;-63
2021/01/22 12:46:15;;;;;;;;;;;6.90;1.00;;;;;;5012107;28;20366;-64
2021/01/22 12:48:41;;;;;;;;;;;7.00;1.00;;;;;;5013026;28;19952;-64
2021/01/22 12:51:07;;;;;;;;;;;7.10;1.00;;;;;;5012546;28;19975;-64
2021/01/22 12:53:34;;;;;;;;;;;7.00;1.00;;;;;;5011365;28;19929;-63
2021/01/22 12:56:00;;;;;;;;;;;7.00;1.00;;;;;;5012999;28;19928;-64
2021/01/22 12:58:27;;;;;;;;;;;6.80;1.00;;;;;;5012644;28;19921;-61
2021/01/22 13:00:53;;;;;;;;;;;6.70;1.00;;;;;;5012090;28;20476;-64
2021/01/22 13:03:19;;;;;;;;;;;6.80;1.00;;;;;;5012192;28;19954;-63
2021/01/22 13:05:45;;;;;;;;;;;6.90;1.00;;;;;;5012765;28;19925;-64
2021/01/22 13:08:11;;;;;;;;;;;7.00;1.00;;;;;;5012580;28;20300;-64
2021/01/22 13:10:37;;;;;;;;;;;7.00;1.00;;;;;;5012025;28;19921;-64
2021/01/22 13:13:04;;;;;;;;;;;7.10;1.00;;;;;;5011828;28;19935;-64
2021/01/22 13:15:30;;;;;;;;;;;7.10;1.00;;;;;;5012262;28;20401;-64
2021/01/22 13:17:57;;;;;;;;;;;7.00;1.00;;;;;;5012475;28;19921;-64
2021/01/22 13:20:23;;;;;;;;;;;7.10;1.00;;;;;;5015336;28;19975;-65
2021/01/22 13:22:49;;;;;;;;;;;7.20;1.00;;;;;;5015305;28;19929;-64
2021/01/22 13:25:15;;;;;;;;;;;7.20;1.00;;;;;;5016159;28;20294;-64
2021/01/22 13:27:41;;;;;;;;;;;7.30;1.00;;;;;;5016298;28;19922;-65
2021/01/22 13:30:09;;;;;;;;;;;7.40;1.00;;;;;;5016261;28;19921;-64
2021/01/22 13:32:36;;;;;;;;;;;7.70;1.00;;;;;;5014961;28;20040;-63
2021/01/22 13:35:04;;;;;;;;;;;7.80;1.00;;;;;;5015750;28;19921;-63
2021/01/22 13:37:30;;;;;;;;;;;8.10;1.00;;;;;;5015508;28;19921;-63
2021/01/22 13:39:56;;;;;;;;;;;8.10;1.00;;;;;;5015585;28;19925;-62
2021/01/22 13:42:23;;;;;;;;;;;8.00;1.00;;;;;;5015142;28;19921;-64
2021/01/22 13:44:49;;;;;;;;;;;8.00;1.00;;;;;;5015810;28;19956;-63
2021/01/22 13:47:15;;;;;;;;;;;7.70;99.90;;;;;;5015296;28;20389;-63
2021/01/22 13:49:41;;;;;;;;;;;7.80;1.00;;;;;;5015379;28;19922;-68
2021/01/22 13:52:08;;;;;;;;;;;7.70;1.00;;;;;;5015112;28;19925;-64
2021/01/22 13:54:34;;;;;;;;;;;7.80;1.00;;;;;;5015506;28;19925;-66
2021/01/22 13:57:00;;;;;;;;;;;7.80;1.00;;;;;;5015452;28;19967;-65
2021/01/22 13:59:26;;;;;;;;;;;7.70;1.00;;;;;;5015604;28;19940;-64
2021/01/22 14:01:52;;;;;;;;;;;7.70;1.00;;;;;;5014746;28;20425;-64
2021/01/22 14:04:20;;;;;;;;;;;7.60;1.00;;;;;;5015085;28;20325;-66
2021/01/22 14:06:46;;;;;;;;;;;7.50;1.00;;;;;;5015458;28;19922;-66
2021/01/22 14:09:13;;;;;;;;;;;7.30;1.00;;;;;;5015148;28;19925;-66
2021/01/22 14:11:39;;;;;;;;;;;7.10;1.00;;;;;;5016294;28;19921;-63
2021/01/22 14:14:05;;;;;;;;;;;7.00;1.00;;;;;;5014192;28;19933;-64
2021/01/22 14:16:32;;;;;;;;;;;7.00;1.00;;;;;;5015013;28;19921;-64
2021/01/22 14:18:58;;;;;;;;;;;6.80;1.00;;;;;;5014807;28;20027;-64
2021/01/22 14:21:24;;;;;;;;;;;6.60;1.00;;;;;;5014717;28;20317;-64
2021/01/22 14:23:50;;;;;;;;;;;6.60;1.00;;;;;;5014072;28;19925;-63
2021/01/22 14:26:17;;;;;;;;;;;6.50;1.00;;;;;;5014827;28;19925;-63
2021/01/22 14:28:44;;;;;;;;;;;6.40;1.00;;;;;;5015256;28;20351;-63
2021/01/22 14:31:10;;;;;;;;;;;6.30;1.00;;;;;;5014378;28;19999;-64
2021/01/22 14:33:36;;;;;;;;;;;6.20;1.00;;;;;;5019057;28;20597;-64